createdAt,value
2018-11-02T00:01:53.587Z,5.80
2018-11-02T00:04:21.768Z,5.80
2018-11-02T00:06:50.149Z,5.80
2018-11-02T00:09:18.429Z,5.90
2018-11-02T00:11:46.552Z,5.90
2018-11-02T00:14:14.976Z,5.90
2018-11-02T00:16:43.139Z,5.90
2018-11-02T00:19:11.378Z,5.90
2018-11-02T00:21:39.562Z,5.90
2018-11-02T00:24:07.815Z,5.90
2018-11-02T00:26:35.979Z,5.80
2018-11-02T00:29:04.614Z,5.60
2018-11-02T00:31:32.767Z,5.40
2018-11-02T00:34:01.076Z,5.30
2018-11-02T00:36:29.405Z,5.20
2018-11-02T00:38:57.597Z,5.20
2018-11-02T00:41:25.856Z,5.30
2018-11-02T00:43:54.041Z,5.30
2018-11-02T00:46:22.217Z,5.30
2018-11-02T00:48:50.692Z,5.30
2018-11-02T00:51:19.981Z,5.40
2018-11-02T00:53:48.189Z,5.40
2018-11-02T00:56:16.393Z,5.40
2018-11-02T00:58:44.538Z,5.40
2018-11-02T01:01:12.750Z,5.50
2018-11-02T01:03:40.958Z,5.60
2018-11-02T01:06:09.094Z,5.60
2018-11-02T01:08:37.381Z,5.60
2018-11-02T01:11:06.702Z,5.70
2018-11-02T01:13:35.468Z,5.70
2018-11-02T01:16:04.032Z,5.60
2018-11-02T01:18:32.275Z,5.60
2018-11-02T01:21:00.666Z,5.50
2018-11-02T01:23:28.870Z,5.50
2018-11-02T01:25:57.453Z,5.60
2018-11-02T01:28:25.830Z,5.70
2018-11-02T01:30:54.063Z,5.90
2018-11-02T01:33:29.067Z,5.90
2018-11-02T01:35:57.367Z,5.90
2018-11-02T01:38:25.830Z,5.90
2018-11-02T01:40:54.076Z,6.00
2018-11-02T01:43:22.453Z,5.90
2018-11-02T01:45:51.252Z,5.90
2018-11-02T01:48:19.522Z,6.00
2018-11-02T01:50:47.848Z,6.00
2018-11-02T01:53:16.429Z,5.90
2018-11-02T01:55:44.682Z,5.70
2018-11-02T01:58:13.364Z,5.50
2018-11-02T02:00:41.522Z,5.30
2018-11-02T02:03:09.908Z,5.30
2018-11-02T02:05:38.258Z,5.20
2018-11-02T02:08:06.664Z,5.20
2018-11-02T02:10:35.038Z,5.10
2018-11-02T02:13:03.276Z,5.10
2018-11-02T02:15:37.981Z,5.10
2018-11-02T02:18:06.280Z,5.00
2018-11-02T02:20:34.682Z,5.00
2018-11-02T02:23:03.329Z,5.00
2018-11-02T02:25:31.510Z,5.00
2018-11-02T02:27:59.844Z,5.00
2018-11-02T02:30:27.965Z,5.00
2018-11-02T02:32:56.155Z,4.90
2018-11-02T02:35:24.338Z,4.90
2018-11-02T02:37:52.534Z,4.80
2018-11-02T02:40:20.751Z,4.80
2018-11-02T02:42:48.957Z,4.70
2018-11-02T02:45:17.063Z,4.60
2018-11-02T02:47:45.600Z,4.50
2018-11-02T02:50:14.303Z,4.50
2018-11-02T02:52:43.560Z,4.60
2018-11-02T02:55:11.908Z,4.60
2018-11-02T02:57:40.237Z,4.60
2018-11-02T03:00:11.273Z,4.60
2018-11-02T03:02:39.636Z,4.60
2018-11-02T03:05:08.217Z,4.70
2018-11-02T03:07:36.403Z,4.80
2018-11-02T03:10:05.247Z,4.80
2018-11-02T03:12:34.415Z,4.80
2018-11-02T03:15:02.755Z,4.70
2018-11-02T03:17:31.385Z,4.60
2018-11-02T03:19:59.714Z,4.40
2018-11-02T03:22:28.369Z,4.30
2018-11-02T03:24:56.562Z,4.20
2018-11-02T03:27:24.788Z,4.10
2018-11-02T03:29:52.986Z,4.00
2018-11-02T03:32:21.115Z,4.80
2018-11-02T03:34:49.739Z,3.80
2018-11-02T03:37:18.083Z,3.80
2018-11-02T03:39:46.355Z,3.90
2018-11-02T03:42:14.667Z,4.10
2018-11-02T03:44:43.151Z,4.20
2018-11-02T03:47:11.388Z,4.20
2018-11-02T03:49:39.747Z,4.10
2018-11-02T03:52:08.251Z,4.10
2018-11-02T03:54:36.424Z,4.10
2018-11-02T03:57:05.368Z,4.10
2018-11-02T03:59:33.628Z,4.20
2018-11-02T04:02:02.033Z,4.20
2018-11-02T04:04:30.250Z,4.20
2018-11-02T04:06:58.438Z,4.20
2018-11-02T04:09:26.936Z,4.00
2018-11-02T04:11:55.105Z,4.00
2018-11-02T04:14:23.601Z,4.00
2018-11-02T04:16:52.010Z,3.90
2018-11-02T04:19:20.253Z,3.90
2018-11-02T04:21:48.710Z,3.90
2018-11-02T04:24:17.006Z,3.90
2018-11-02T04:26:45.564Z,3.90
2018-11-02T04:29:14.875Z,3.90
2018-11-02T04:31:43.967Z,3.90
2018-11-02T04:34:13.264Z,3.90
2018-11-02T04:36:41.757Z,3.90
2018-11-02T04:39:12.583Z,3.90
2018-11-02T04:41:40.909Z,4.00
2018-11-02T04:44:09.964Z,4.10
2018-11-02T04:46:38.719Z,4.20
2018-11-02T04:49:07.856Z,4.30
2018-11-02T04:51:36.369Z,4.30
2018-11-02T04:54:04.672Z,4.30
2018-11-02T04:56:33.058Z,4.30
2018-11-02T04:59:01.218Z,4.20
2018-11-02T05:01:29.364Z,4.00
2018-11-02T05:03:57.483Z,3.90
2018-11-02T05:06:25.606Z,3.90
2018-11-02T05:08:53.833Z,4.00
2018-11-02T05:11:22.211Z,4.00
2018-11-02T05:13:50.428Z,4.10
2018-11-02T05:16:18.538Z,4.10
2018-11-02T05:18:46.842Z,4.10
2018-11-02T05:21:14.980Z,4.10
2018-11-02T05:23:43.066Z,4.30
2018-11-02T05:26:11.220Z,4.30
2018-11-02T05:28:39.374Z,4.40
2018-11-02T05:31:07.580Z,4.40
2018-11-02T05:33:35.828Z,4.40
2018-11-02T05:36:04.639Z,4.50
2018-11-02T05:38:32.786Z,4.40
2018-11-02T05:41:00.933Z,4.30
2018-11-02T05:43:29.114Z,4.30
2018-11-02T05:45:57.604Z,4.30
2018-11-02T05:48:25.813Z,4.30
2018-11-02T05:50:54.280Z,4.30
2018-11-02T05:53:22.485Z,4.30
2018-11-02T05:55:50.816Z,4.30
2018-11-02T05:58:19.217Z,4.30
2018-11-02T06:00:47.369Z,4.40
2018-11-02T06:03:16.794Z,4.40
2018-11-02T06:05:45.067Z,4.40
2018-11-02T06:08:13.233Z,4.40
2018-11-02T06:10:41.421Z,4.50
2018-11-02T06:13:09.733Z,4.60
2018-11-02T06:15:38.173Z,6.10
2018-11-02T06:18:06.517Z,4.90
2018-11-02T06:20:34.714Z,4.90
2018-11-02T06:23:03.118Z,4.90
2018-11-02T06:25:31.416Z,5.10
2018-11-02T06:27:59.732Z,5.20
2018-11-02T06:30:27.928Z,5.20
2018-11-02T06:32:56.507Z,5.20
2018-11-02T06:35:24.660Z,5.10
2018-11-02T06:37:52.815Z,5.00
2018-11-02T06:40:21.040Z,5.00
2018-11-02T06:42:49.997Z,5.10
2018-11-02T06:45:18.379Z,5.10
2018-11-02T06:47:46.561Z,5.30
2018-11-02T06:50:14.901Z,5.40
2018-11-02T06:52:43.365Z,5.40
2018-11-02T06:55:11.589Z,5.40
2018-11-02T06:57:39.928Z,5.50
2018-11-02T07:00:11.807Z,5.50
2018-11-02T07:02:40.273Z,5.50
2018-11-02T07:05:08.685Z,5.50
2018-11-02T07:07:37.181Z,5.50
2018-11-02T07:10:06.865Z,5.60
2018-11-02T07:12:35.306Z,5.70
2018-11-02T07:15:03.916Z,5.90
2018-11-02T07:17:32.121Z,6.00
2018-11-02T07:20:00.265Z,6.10
2018-11-02T07:22:28.875Z,6.00
2018-11-02T07:24:57.361Z,6.00
2018-11-02T07:27:25.480Z,6.10
2018-11-02T07:29:53.695Z,6.10
2018-11-02T07:32:22.067Z,6.00
2018-11-02T07:34:50.485Z,6.00
2018-11-02T07:37:18.641Z,5.90
2018-11-02T07:39:47.887Z,5.90
2018-11-02T07:42:16.224Z,5.90
2018-11-02T07:44:44.629Z,5.90
2018-11-02T07:47:13.032Z,6.00
2018-11-02T07:49:42.401Z,6.30
2018-11-02T07:52:10.511Z,6.60
2018-11-02T07:54:38.727Z,7.00
2018-11-02T07:57:07.131Z,7.40
2018-11-02T07:59:35.277Z,7.70
2018-11-02T08:02:03.830Z,8.00
2018-11-02T08:04:31.871Z,8.40
2018-11-02T08:06:59.942Z,8.80
2018-11-02T08:09:28.130Z,9.20
2018-11-02T08:11:56.366Z,9.50
2018-11-02T08:14:24.471Z,9.80
2018-11-02T08:16:52.572Z,9.90
2018-11-02T08:19:21.837Z,9.90
2018-11-02T08:21:49.967Z,9.70
2018-11-02T08:24:18.236Z,9.60
2018-11-02T08:26:46.445Z,9.60
2018-11-02T08:29:14.775Z,9.80
2018-11-02T08:31:42.902Z,10.00
2018-11-02T08:34:11.287Z,10.10
2018-11-02T08:36:39.403Z,10.30
2018-11-02T08:39:09.420Z,10.50
2018-11-02T08:41:37.685Z,10.60
2018-11-02T08:44:06.676Z,10.80
2018-11-02T08:46:34.947Z,10.70
2018-11-02T08:49:03.486Z,10.70
2018-11-02T08:51:31.778Z,10.60
2018-11-02T08:53:59.999Z,10.40
2018-11-02T08:56:28.224Z,10.40
2018-11-02T08:58:56.417Z,10.30
2018-11-02T09:01:24.680Z,10.20
2018-11-02T09:03:52.966Z,10.10
2018-11-02T09:06:21.115Z,10.20
2018-11-02T09:08:49.480Z,10.50
2018-11-02T09:11:17.687Z,11.00
2018-11-02T09:13:45.867Z,11.30
2018-11-02T09:16:15.181Z,11.60
2018-11-02T09:18:43.280Z,11.80
2018-11-02T09:21:11.537Z,12.00
2018-11-02T09:23:39.710Z,12.20
2018-11-02T09:26:07.868Z,12.30
2018-11-02T09:28:36.038Z,12.60
2018-11-02T09:31:04.211Z,12.70
2018-11-02T09:33:32.305Z,12.80
2018-11-02T09:36:00.475Z,13.00
2018-11-02T09:38:28.969Z,13.50
2018-11-02T09:40:57.096Z,13.70
2018-11-02T09:43:26.032Z,13.60
2018-11-02T09:45:54.486Z,13.60
2018-11-02T09:48:22.633Z,13.40
2018-11-02T09:50:51.052Z,13.40
2018-11-02T09:53:19.549Z,13.20
2018-11-02T09:55:47.743Z,13.00
2018-11-02T09:58:15.909Z,13.00
2018-11-02T10:00:44.125Z,12.80
2018-11-02T10:03:12.498Z,12.60
2018-11-02T10:05:40.695Z,12.50
2018-11-02T10:08:08.911Z,12.40
2018-11-02T10:10:37.562Z,12.00
2018-11-02T10:13:05.960Z,12.00
2018-11-02T10:15:34.206Z,12.00
2018-11-02T10:18:02.410Z,12.10
2018-11-02T10:20:30.898Z,12.00
2018-11-02T10:23:00.419Z,11.80
2018-11-02T10:25:28.709Z,11.80
2018-11-02T10:27:57.229Z,12.00
2018-11-02T10:30:25.587Z,12.20
2018-11-02T10:32:56.604Z,12.70
2018-11-02T10:35:25.398Z,13.20
2018-11-02T10:37:56.916Z,13.30
2018-11-02T10:40:25.368Z,13.30
2018-11-02T10:43:03.886Z,13.60
2018-11-02T10:45:35.857Z,14.10
2018-11-02T10:48:06.272Z,14.00
2018-11-02T10:50:34.597Z,13.50
2018-11-02T10:53:03.345Z,13.00
2018-11-02T10:55:31.737Z,12.60
2018-11-02T10:58:00.056Z,12.40
2018-11-02T11:01:36.904Z,12.40
2018-11-02T11:04:06.299Z,12.60
2018-11-02T11:06:35.218Z,13.00
2018-11-02T11:09:06.106Z,13.20
2018-11-02T11:11:34.387Z,13.50
2018-11-02T11:14:02.637Z,13.80
2018-11-02T11:16:30.898Z,14.00
2018-11-02T11:18:59.259Z,13.80
2018-11-02T11:21:27.490Z,13.80
2018-11-02T11:23:55.813Z,13.80
2018-11-02T11:26:24.277Z,13.40
2018-11-02T11:28:52.442Z,13.30
2018-11-02T11:31:20.738Z,13.20
2018-11-02T11:33:49.022Z,13.10
2018-11-02T11:36:17.339Z,13.10
2018-11-02T11:38:45.567Z,13.10
2018-11-02T11:41:13.984Z,13.10
2018-11-02T11:43:42.403Z,12.90
2018-11-02T11:46:10.568Z,12.90
2018-11-02T11:48:39.621Z,13.10
2018-11-02T11:51:07.916Z,13.00
2018-11-02T11:53:36.965Z,13.10
2018-11-02T11:56:06.023Z,13.20
2018-11-02T11:58:34.204Z,13.20
2018-11-02T12:01:02.350Z,13.30
2018-11-02T12:03:30.920Z,13.30
2018-11-02T12:05:59.185Z,13.20
2018-11-02T12:08:27.500Z,13.20
2018-11-02T12:10:56.073Z,13.30
2018-11-02T12:13:24.256Z,13.20
2018-11-02T12:15:52.611Z,13.20
2018-11-02T12:18:20.710Z,13.20
2018-11-02T12:20:49.129Z,13.30
2018-11-02T12:23:17.567Z,13.30
2018-11-02T12:25:45.769Z,13.30
2018-11-02T12:28:14.029Z,13.20
2018-11-02T12:30:42.440Z,13.20
2018-11-02T12:33:10.555Z,13.30
2018-11-02T12:35:43.007Z,13.30
2018-11-02T12:38:11.350Z,13.30
2018-11-02T12:40:39.579Z,13.30
2018-11-02T12:43:08.186Z,13.20
2018-11-02T12:45:36.568Z,13.20
2018-11-02T12:48:04.944Z,13.10
2018-11-02T12:50:33.091Z,13.00
2018-11-02T12:53:01.404Z,12.90
2018-11-02T12:55:29.754Z,12.90
2018-11-02T12:57:58.235Z,12.90
2018-11-02T13:00:27.457Z,12.80
2018-11-02T13:02:56.007Z,12.90
2018-11-02T13:05:24.263Z,13.00
2018-11-02T13:07:52.539Z,13.10
2018-11-02T13:10:22.069Z,13.10
2018-11-02T13:12:50.281Z,13.00
2018-11-02T13:15:19.968Z,12.80
2018-11-02T13:17:48.651Z,12.70
2018-11-02T13:20:17.064Z,12.70
2018-11-02T13:22:46.304Z,12.70
2018-11-02T13:25:16.638Z,12.70
2018-11-02T13:27:45.307Z,12.80
2018-11-02T13:30:13.904Z,12.80
2018-11-02T13:32:42.523Z,12.70
2018-11-02T13:35:13.263Z,12.70
2018-11-02T13:37:42.403Z,12.80
2018-11-02T13:40:12.128Z,12.70
2018-11-02T13:42:40.794Z,12.70
2018-11-02T13:45:10.688Z,12.70
2018-11-02T13:47:39.590Z,12.60
2018-11-02T13:50:08.056Z,12.60
2018-11-02T13:52:36.249Z,12.60
2018-11-02T13:55:05.674Z,12.60
2018-11-02T13:57:34.035Z,12.60
2018-11-02T14:00:02.327Z,12.60
2018-11-02T14:02:30.687Z,12.60
2018-11-02T14:04:59.030Z,12.60
2018-11-02T14:07:27.456Z,12.50
2018-11-02T14:09:55.673Z,12.50
2018-11-02T14:12:23.877Z,12.60
2018-11-02T14:14:52.063Z,12.50
2018-11-02T14:17:20.754Z,12.50
2018-11-02T14:19:50.529Z,12.50
2018-11-02T14:22:18.693Z,12.50
2018-11-02T14:24:47.005Z,12.40
2018-11-02T14:27:15.153Z,12.40
2018-11-02T14:29:44.550Z,12.40
2018-11-02T14:32:12.738Z,12.40
2018-11-02T14:34:41.146Z,12.40
2018-11-02T14:37:09.250Z,12.40
2018-11-02T14:39:37.570Z,12.30
2018-11-02T14:42:05.988Z,12.30
2018-11-02T14:44:34.271Z,12.30
2018-11-02T14:47:02.526Z,12.20
2018-11-02T14:49:31.418Z,12.20
2018-11-02T14:51:59.638Z,12.20
2018-11-02T14:54:28.110Z,12.10
2018-11-02T14:56:56.354Z,12.10
2018-11-02T14:59:24.715Z,12.10
2018-11-02T15:01:53.062Z,12.10
2018-11-02T15:04:21.764Z,12.10
2018-11-02T15:06:49.973Z,12.00
2018-11-02T15:09:18.331Z,12.00
2018-11-02T15:11:47.760Z,12.10
2018-11-02T15:14:15.954Z,12.10
2018-11-02T15:16:44.239Z,12.10
2018-11-02T15:19:12.443Z,12.10
2018-11-02T15:21:40.766Z,12.10
2018-11-02T15:24:08.949Z,12.10
2018-11-02T15:26:37.407Z,12.10
2018-11-02T15:29:05.680Z,12.00
2018-11-02T15:31:34.001Z,11.90
2018-11-02T15:34:02.104Z,11.90
2018-11-02T15:36:30.505Z,11.80
2018-11-02T15:38:58.700Z,11.70
2018-11-02T15:41:27.182Z,11.70
2018-11-02T15:43:55.336Z,11.70
2018-11-02T15:46:23.799Z,11.60
2018-11-02T15:48:53.138Z,11.50
2018-11-02T15:51:21.423Z,11.50
2018-11-02T15:53:49.615Z,11.40
2018-11-02T15:56:17.850Z,11.30
2018-11-02T15:58:46.043Z,11.30
2018-11-02T16:01:14.355Z,11.20
2018-11-02T16:03:42.503Z,11.10
2018-11-02T16:06:10.707Z,11.00
2018-11-02T16:08:38.886Z,10.90
2018-11-02T16:11:07.139Z,10.80
2018-11-02T16:13:35.266Z,10.80
2018-11-02T16:16:03.552Z,10.70
2018-11-02T16:18:32.308Z,10.70
2018-11-02T16:21:00.637Z,10.60
2018-11-02T16:23:28.812Z,10.60
2018-11-02T16:25:57.189Z,10.50
2018-11-02T16:28:25.365Z,10.50
2018-11-02T16:30:53.608Z,10.50
2018-11-02T16:33:22.189Z,10.70
2018-11-02T16:35:50.814Z,10.70
2018-11-02T16:38:18.982Z,10.70
2018-11-02T16:40:47.133Z,10.60
2018-11-02T16:43:15.617Z,10.50
2018-11-02T16:45:44.327Z,10.40
2018-11-02T16:48:12.896Z,10.30
2018-11-02T16:50:41.242Z,10.20
2018-11-02T16:53:09.704Z,10.10
2018-11-02T16:55:37.909Z,10.00
2018-11-02T16:58:06.411Z,9.90
2018-11-02T17:00:34.670Z,9.90
2018-11-02T17:03:02.876Z,10.00
2018-11-02T17:05:32.040Z,10.00
2018-11-02T17:08:00.577Z,10.00
2018-11-02T17:10:28.845Z,9.90
2018-11-02T17:12:56.943Z,9.80
2018-11-02T17:15:25.149Z,9.80
2018-11-02T17:17:53.416Z,9.70
2018-11-02T17:20:21.732Z,9.70
2018-11-02T17:22:50.068Z,9.60
2018-11-02T17:25:18.489Z,9.60
2018-11-02T17:27:46.933Z,9.60
2018-11-02T17:30:16.661Z,9.50
2018-11-02T17:32:45.180Z,9.50
2018-11-02T17:35:13.530Z,9.40
2018-11-02T17:37:41.795Z,9.40
2018-11-02T17:40:11.727Z,9.40
2018-11-02T17:42:39.997Z,9.40
2018-11-02T17:45:08.778Z,9.40
2018-11-02T17:47:38.327Z,9.40
2018-11-02T17:50:08.202Z,9.40
2018-11-02T17:52:36.531Z,9.40
2018-11-02T17:55:06.034Z,9.30
2018-11-02T17:57:34.508Z,9.30
2018-11-02T18:00:03.116Z,9.20
2018-11-02T18:02:31.466Z,9.20
2018-11-02T18:04:59.979Z,9.10
2018-11-02T18:07:28.658Z,9.10
2018-11-02T18:09:57.343Z,9.20
2018-11-02T18:12:26.053Z,9.20
2018-11-02T18:14:54.176Z,9.10
2018-11-02T18:17:23.739Z,9.10
2018-11-02T18:19:51.984Z,9.00
2018-11-02T18:22:21.382Z,9.00
2018-11-02T18:24:49.616Z,9.10
2018-11-02T18:27:18.013Z,9.20
2018-11-02T18:29:46.678Z,9.20
2018-11-02T18:32:15.053Z,9.20
2018-11-02T18:34:43.718Z,9.20
2018-11-02T18:37:11.888Z,9.20
2018-11-02T18:39:40.352Z,9.10
2018-11-02T18:42:08.735Z,9.10
2018-11-02T18:44:37.055Z,9.10
2018-11-02T18:47:05.757Z,9.10
2018-11-02T18:49:34.091Z,9.00
2018-11-02T18:52:02.750Z,9.00
2018-11-02T18:54:31.833Z,9.00
2018-11-02T18:57:00.709Z,9.00
2018-11-02T18:59:29.249Z,9.00
2018-11-02T19:01:57.584Z,9.10
2018-11-02T19:04:25.916Z,9.10
2018-11-02T19:06:54.718Z,9.10
2018-11-02T19:09:23.164Z,9.10
2018-11-02T19:11:52.212Z,9.10
2018-11-02T19:14:20.533Z,9.10
2018-11-02T19:16:48.879Z,9.10
2018-11-02T19:19:17.234Z,9.10
2018-11-02T19:21:45.644Z,9.10
2018-11-02T19:24:14.477Z,9.10
2018-11-02T19:26:42.737Z,9.10
2018-11-02T19:29:11.320Z,9.10
2018-11-02T19:31:39.484Z,9.10
2018-11-02T19:34:07.827Z,9.10
2018-11-02T19:36:36.348Z,9.10
2018-11-02T19:39:07.560Z,9.10
2018-11-02T19:41:35.957Z,9.10
2018-11-02T19:44:04.966Z,9.10
2018-11-02T19:46:33.633Z,9.10
2018-11-02T19:49:01.905Z,9.10
2018-11-02T19:54:01.025Z,9.00
2018-11-02T19:56:29.504Z,8.90
2018-11-02T19:58:57.822Z,8.80
2018-11-02T20:01:26.484Z,8.70
2018-11-02T20:03:54.758Z,8.60
2018-11-02T20:06:23.135Z,8.50
2018-11-02T20:08:51.295Z,9.30
2018-11-02T20:13:53.932Z,8.50
2018-11-02T20:16:22.232Z,8.50
2018-11-02T20:18:50.880Z,8.40
2018-11-02T20:21:19.210Z,8.40
2018-11-02T20:23:47.420Z,8.30
2018-11-02T20:26:15.659Z,8.30
2018-11-02T20:28:44.097Z,8.20
2018-11-02T20:31:12.472Z,8.20
2018-11-02T20:33:40.701Z,8.10
2018-11-02T20:36:09.401Z,8.20
2018-11-02T20:38:37.693Z,8.20
2018-11-02T20:41:05.956Z,8.10
2018-11-02T20:43:34.169Z,8.10
2018-11-02T20:46:02.557Z,8.00
2018-11-02T20:48:31.043Z,8.00
2018-11-02T20:50:59.362Z,7.90
2018-11-02T20:53:28.419Z,7.80
2018-11-02T20:55:56.669Z,7.70
2018-11-02T20:58:25.079Z,7.60
2018-11-02T21:00:53.233Z,7.50
2018-11-02T21:03:21.671Z,7.50
2018-11-02T21:05:50.135Z,7.40
2018-11-02T21:08:18.375Z,7.40
2018-11-02T21:10:46.716Z,7.40
2018-11-02T21:13:15.182Z,7.50
2018-11-02T21:15:43.626Z,7.40
2018-11-02T21:18:12.112Z,7.40
2018-11-02T21:20:40.680Z,7.30
2018-11-02T21:23:09.755Z,7.20
2018-11-02T21:25:38.404Z,7.10
2018-11-02T21:28:06.615Z,7.00
2018-11-02T21:30:35.353Z,7.00
2018-11-02T21:33:03.819Z,6.90
2018-11-02T21:35:32.061Z,6.90
2018-11-02T21:38:01.810Z,7.00
2018-11-02T21:40:30.109Z,6.80
2018-11-02T21:42:59.089Z,6.70
2018-11-02T21:45:28.147Z,6.60
2018-11-02T21:47:57.020Z,6.60
2018-11-02T21:50:25.651Z,6.60
2018-11-02T21:52:54.341Z,7.00
2018-11-02T21:55:24.480Z,6.50
2018-11-02T21:57:53.623Z,6.40
2018-11-02T22:00:22.536Z,6.40
2018-11-02T22:02:50.941Z,6.30
2018-11-02T22:05:20.103Z,6.30
2018-11-02T22:07:49.782Z,6.20
2018-11-02T22:10:19.078Z,6.10
2018-11-02T22:12:50.435Z,6.10
2018-11-02T22:15:18.721Z,6.00
2018-11-02T22:17:46.943Z,6.00
2018-11-02T22:20:16.730Z,6.00
2018-11-02T22:22:45.143Z,6.10
2018-11-02T22:25:14.593Z,6.20
2018-11-02T22:27:43.302Z,5.00
2018-11-02T22:30:13.385Z,6.10
2018-11-02T22:32:41.954Z,6.00
2018-11-02T22:35:10.956Z,6.00
2018-11-02T22:37:40.610Z,5.90
2018-11-02T22:40:11.158Z,6.00
2018-11-02T22:42:40.999Z,6.10
2018-11-02T22:45:10.313Z,6.20
2018-11-02T22:47:39.904Z,6.20
2018-11-02T22:50:08.612Z,6.20
2018-11-02T22:52:37.092Z,6.10
2018-11-02T22:55:07.065Z,6.10
2018-11-02T22:57:35.327Z,6.10
2018-11-02T23:00:07.310Z,6.10
2018-11-02T23:02:35.650Z,6.10
2018-11-02T23:05:05.221Z,6.10
2018-11-02T23:07:33.585Z,6.20
2018-11-02T23:10:01.951Z,6.20
2018-11-02T23:12:30.228Z,6.20
2018-11-02T23:14:58.482Z,6.30
2018-11-02T23:17:26.687Z,6.40
2018-11-02T23:19:55.053Z,6.40
2018-11-02T23:22:23.847Z,6.50
2018-11-02T23:24:52.175Z,6.60
2018-11-02T23:27:20.994Z,6.60
2018-11-02T23:29:49.511Z,6.70
2018-11-02T23:32:18.191Z,6.70
2018-11-02T23:34:46.632Z,6.70
2018-11-02T23:37:14.921Z,6.70
2018-11-02T23:39:43.280Z,6.70
2018-11-02T23:42:11.646Z,6.70
2018-11-02T23:44:39.953Z,6.70
2018-11-02T23:47:08.825Z,6.80
2018-11-02T23:49:37.233Z,6.80
2018-11-02T23:52:05.826Z,6.80
2018-11-02T23:54:34.196Z,6.80
2018-11-02T23:57:02.625Z,6.90
2018-11-02T23:59:31.457Z,6.90
